Time;durP1;ratioP1;P1;durP2;ratioP2;P2;SDS_P1;SDS_P2;PMS_P1;PMS_P2;Temp;Humidity;BMP_temperature;BMP_pressure;BME280_temperature;BME280_humidity;BME280_pressure;Samples;Min_cycle;Max_cycle;Signal;HPM_P1;HPM_P2
2023/01/03 00:00:49;;;;;;;3.42;1.85;;;;;;;8.34;100.00;100177.91;5071766;28;20098;-77
2023/01/03 00:03:16;;;;;;;3.92;1.83;;;;;;;8.28;100.00;100165.25;5055607;28;20374;-78
2023/01/03 00:05:46;;;;;;;7.20;2.55;;;;;;;8.12;100.00;100160.78;5039138;28;20127;-77
2023/01/03 00:08:14;;;;;;;7.18;2.35;;;;;;;7.99;100.00;100149.81;5038974;28;20042;-77
2023/01/03 00:10:40;;;;;;;6.25;2.03;;;;;;;7.91;100.00;100142.66;5056524;28;20064;-77
2023/01/03 00:13:06;;;;;;;5.55;1.65;;;;;;;7.83;100.00;100139.16;5059358;28;20071;-76
2023/01/03 00:15:37;;;;;;;8.40;3.35;;;;;;;7.77;100.00;100131.81;5059031;28;20035;-78
2023/01/03 00:18:02;;;;;;;7.57;2.90;;;;;;;7.69;100.00;100117.44;5059395;28;20033;-77
2023/01/03 00:20:28;;;;;;;7.10;2.47;;;;;;;7.64;100.00;100106.44;5042652;28;20051;-78
2023/01/03 00:22:54;;;;;;;7.63;2.60;;;;;;;7.66;100.00;100103.59;5042838;28;20060;-76
2023/01/03 00:25:19;;;;;;;8.82;3.15;;;;;;;7.65;100.00;100094.75;5042586;28;20040;-79
2023/01/03 00:27:45;;;;;;;4.95;2.67;;;;;;;7.62;100.00;100084.38;5059213;28;20021;-76
2023/01/03 00:30:11;;;;;;;6.20;2.95;;;;;;;7.61;100.00;100060.47;5058756;28;20179;-76
2023/01/03 00:32:37;;;;;;;4.32;2.38;;;;;;;7.65;100.00;100069.81;5059131;28;20082;-76
2023/01/03 00:35:03;;;;;;;7.65;2.53;;;;;;;7.62;100.00;100062.97;5059157;28;20482;-75
2023/01/03 00:37:28;;;;;;;5.00;2.15;;;;;;;7.69;100.00;100058.59;5058747;28;20111;-76
2023/01/03 00:39:54;;;;;;;4.85;2.00;;;;;;;7.77;100.00;100051.53;5042515;28;20089;-75
2023/01/03 00:42:20;;;;;;;6.70;2.35;;;;;;;7.82;100.00;100044.63;5042242;28;20497;-78
2023/01/03 00:44:45;;;;;;;3.33;1.65;;;;;;;7.82;100.00;100033.94;5075272;28;20032;-77
2023/01/03 00:47:11;;;;;;;3.33;1.33;;;;;;;7.93;100.00;100041.56;5058815;28;20572;-77
2023/01/03 00:49:36;;;;;;;2.83;1.50;;;;;;;7.98;100.00;100022.28;5058284;28;20360;-76
2023/01/03 00:52:02;;;;;;;4.20;2.05;;;;;;;8.05;100.00;100022.44;5058491;28;20040;-77
2023/01/03 00:54:28;;;;;;;1.88;1.35;;;;;;;8.06;100.00;100021.41;5041506;28;20376;-78
2023/01/03 00:56:54;;;;;;;5.35;1.33;;;;;;;7.99;100.00;99994.53;5058245;28;20028;-77
2023/01/03 00:59:20;;;;;;;4.25;1.50;;;;;;;8.10;100.00;100004.81;5058545;28;20036;-76
2023/01/03 01:01:48;;;;;;;4.25;1.98;;;;;;;8.10;100.00;100004.00;5042144;28;20119;-76
2023/01/03 01:04:17;;;;;;;1.95;1.25;;;;;;;8.14;100.00;99994.59;5075106;28;20020;-76
2023/01/03 01:06:45;;;;;;;4.65;1.83;;;;;;;8.17;100.00;99990.72;5058600;28;20087;-75
2023/01/03 01:09:13;;;;;;;5.25;2.10;;;;;;;8.19;100.00;99980.66;5074681;28;20055;-75
2023/01/03 01:11:40;;;;;;;4.65;2.17;;;;;;;8.20;100.00;99971.59;5041942;28;20032;-75
2023/01/03 01:14:18;;;;;;;4.38;2.75;;;;;;;8.15;100.00;99969.50;5075024;28;20041;-77
2023/01/03 01:16:53;;;;;;;4.03;2.47;;;;;;;8.12;100.00;99972.50;5060274;28;20119;-78
2023/01/03 01:19:22;;;;;;;4.88;2.22;;;;;;;8.15;100.00;99948.06;5041769;28;20064;-76
2023/01/03 01:21:47;;;;;;;5.32;2.58;;;;;;;8.17;100.00;99958.56;5075020;28;20036;-76
2023/01/03 01:24:13;;;;;;;3.35;1.88;;;;;;;8.12;100.00;99932.34;5057717;28;20086;-76
2023/01/03 01:26:39;;;;;;;5.55;2.95;;;;;;;8.16;100.00;99930.97;5041703;28;20089;-75
2023/01/03 01:29:05;;;;;;;2.40;1.77;;;;;;;8.09;100.00;99922.81;5041424;28;20067;-76
2023/01/03 01:31:31;;;;;;;2.70;1.85;;;;;;;8.18;100.00;99923.59;5058262;28;20024;-76
2023/01/03 01:33:57;;;;;;;1.55;1.10;;;;;;;8.17;100.00;99916.56;5025534;28;20037;-75
2023/01/03 01:36:29;;;;;;;0.68;0.68;;;;;;;8.22;100.00;99926.75;5057545;28;20538;-75
2023/01/03 01:39:04;;;;;;;0.73;0.73;;;;;;;8.19;100.00;99919.06;5058038;28;20079;-78
2023/01/03 01:44:41;;;;;;;0.63;0.63;;;;;;;8.28;100.00;99913.47;5060316;28;20037;-75
2023/01/03 01:47:22;;;;;;;0.73;0.73;;;;;;;8.29;100.00;99900.91;5057882;28;20028;-76
2023/01/03 01:49:53;;;;;;;0.70;0.70;;;;;;;8.32;100.00;99893.31;5057540;28;20032;-76
2023/01/03 01:52:19;;;;;;;0.70;0.65;;;;;;;8.36;100.00;99905.34;5041277;28;20041;-75
2023/01/03 01:54:47;;;;;;;0.73;0.73;;;;;;;8.49;100.00;99906.59;5041063;28;20047;-76
2023/01/03 01:57:15;;;;;;;1.00;0.90;;;;;;;8.53;100.00;99894.50;5057645;28;20078;-76
2023/01/03 01:59:41;;;;;;;0.70;0.70;;;;;;;8.61;100.00;99899.75;5024746;28;20049;-75
2023/01/03 02:02:08;;;;;;;0.63;0.63;;;;;;;8.62;100.00;99890.69;5074175;28;20032;-75
2023/01/03 02:04:37;;;;;;;1.33;1.13;;;;;;;8.66;100.00;99908.09;5057460;28;20056;-76
2023/01/03 02:07:03;;;;;;;0.75;0.73;;;;;;;8.71;100.00;99913.72;5040890;28;20037;-75
2023/01/03 02:09:32;;;;;;;1.30;0.88;;;;;;;8.74;100.00;99909.84;5040650;28;20040;-76
2023/01/03 02:15:29;;;;;;;0.55;0.55;;;;;;;8.80;100.00;99926.00;5065951;28;20055;-75
2023/01/03 02:18:22;;;;;;;0.50;0.50;;;;;;;8.74;100.00;99923.25;5057180;28;20036;-75
2023/01/03 02:21:29;;;;;;;0.40;0.40;;;;;;;8.84;100.00;99933.69;5074492;28;20035;-76
2023/01/03 02:24:21;;;;;;;0.60;0.60;;;;;;;8.89;100.00;99942.00;4999874;28;20038;-75
2023/01/03 02:27:35;;;;;;;0.40;0.40;;;;;;;8.89;100.00;99944.69;5028010;28;20140;-75
2023/01/03 02:30:16;;;;;;;0.57;0.57;;;;;;;8.93;100.00;99943.31;5045383;28;20285;-76
2023/01/03 02:32:52;;;;;;;0.50;0.50;;;;;;;8.92;100.00;99947.84;5073288;28;20028;-75
2023/01/03 02:35:17;;;;;;;0.50;0.50;;;;;;;8.92;100.00;99952.38;5039333;28;20480;-75
2023/01/03 02:37:52;;;;;;;0.57;0.50;;;;;;;8.94;100.00;99956.50;5073103;28;20032;-75
2023/01/03 02:40:28;;;;;;;0.57;0.52;;;;;;;8.94;100.00;99972.59;5073302;28;20036;-75
2023/01/03 02:42:57;;;;;;;0.40;0.40;;;;;;;9.00;100.00;99984.47;5056625;28;20063;-74
2023/01/03 02:45:45;;;;;;;0.50;0.50;;;;;;;9.02;100.00;99985.09;5056844;28;20039;-75
2023/01/03 02:48:37;;;;;;;0.40;0.40;;;;;;;9.02;100.00;100006.53;5056653;28;20028;-75
2023/01/03 02:51:08;;;;;;;0.40;0.40;;;;;;;9.00;100.00;100000.56;5040207;28;20110;-75
2023/01/03 02:53:39;;;;;;;0.38;0.38;;;;;;;8.97;100.00;100008.94;5056418;28;20436;-75
2023/01/03 02:56:08;;;;;;;0.50;0.50;;;;;;;8.95;100.00;100019.03;5073076;28;20514;-76
2023/01/03 02:58:36;;;;;;;0.40;0.40;;;;;;;8.95;100.00;100011.00;5055721;28;20044;-75
2023/01/03 03:01:02;;;;;;;0.35;0.35;;;;;;;9.01;100.00;100016.44;5023571;28;20025;-75
2023/01/03 03:03:32;;;;;;;0.40;0.40;;;;;;;9.06;100.00;100028.47;5039364;28;20021;-76
2023/01/03 03:06:18;;;;;;;0.40;0.40;;;;;;;9.14;100.00;100034.56;5056236;28;20531;-75
2023/01/03 03:08:46;;;;;;;0.40;0.40;;;;;;;9.15;100.00;100043.44;5072687;28;20028;-75
2023/01/03 03:14:06;;;;;;;0.40;0.40;;;;;;;9.08;100.00;100040.69;5058425;28;20426;-75
2023/01/03 03:16:47;;;;;;;0.40;0.40;;;;;;;9.04;100.00;100034.00;5039775;28;20044;-76
2023/01/03 03:25:02;;;;;;;0.40;0.40;;;;;;;8.77;100.00;100020.19;5072633;28;20036;-75
2023/01/03 03:30:14;;;;;;;0.40;0.40;;;;;;;8.83;100.00;100039.25;5058163;28;20021;-75
2023/01/03 03:32:43;;;;;;;0.50;0.50;;;;;;;8.83;100.00;100047.28;5072557;28;20046;-76
2023/01/03 03:35:11;;;;;;;0.40;0.40;;;;;;;8.77;100.00;100041.66;5022835;28;20040;-76
2023/01/03 03:37:38;;;;;;;0.40;0.40;;;;;;;8.82;100.00;100053.69;5072391;28;20052;-75
2023/01/03 03:46:07;;;;;;;0.40;0.40;;;;;;;8.80;100.00;100052.00;5072281;28;20037;-76
2023/01/03 03:51:30;;;;;;;0.40;0.40;;;;;;;8.79;100.00;100061.06;5058208;28;20044;-76
2023/01/03 03:53:56;;;;;;;0.40;0.40;;;;;;;8.73;100.00;100050.22;5055550;28;20036;-76
2023/01/03 03:56:27;;;;;;;0.40;0.40;;;;;;;8.75;100.00;100054.38;5022681;28;20036;-75
2023/01/03 03:58:55;;;;;;;0.38;0.38;;;;;;;8.76;100.00;100055.25;5055979;28;20459;-75
2023/01/03 04:01:21;;;;;;;0.40;0.40;;;;;;;8.77;100.00;100051.53;5055540;28;20040;-76
2023/01/03 04:03:49;;;;;;;0.40;0.40;;;;;;;8.76;100.00;100056.06;5039026;28;20147;-78
2023/01/03 04:06:32;;;;;;;0.40;0.40;;;;;;;8.78;100.00;100063.91;5071845;28;20052;-76
2023/01/03 04:08:58;;;;;;;0.40;0.40;;;;;;;8.71;100.00;100057.63;5055343;28;20032;-76
2023/01/03 04:11:24;;;;;;;0.43;0.43;;;;;;;8.71;100.00;100071.88;5071944;28;20047;-76
2023/01/03 04:13:49;;;;;;;0.40;0.40;;;;;;;8.68;100.00;100076.72;5071917;28;20028;-76
2023/01/03 04:16:15;;;;;;;1.65;0.75;;;;;;;8.65;100.00;100075.25;5054898;28;20024;-76
2023/01/03 04:18:41;;;;;;;0.50;0.50;;;;;;;8.57;100.00;100070.81;5055265;28;20056;-76
2023/01/03 04:21:07;;;;;;;0.30;0.30;;;;;;;8.54;100.00;100071.13;5038822;28;20382;-78
2023/01/03 04:23:32;;;;;;;0.50;0.50;;;;;;;8.51;100.00;100073.34;5055608;28;20071;-76
2023/01/03 04:25:58;;;;;;;0.40;0.40;;;;;;;8.44;100.00;100057.19;5038802;28;20383;-76
2023/01/03 04:28:23;;;;;;;0.43;0.43;;;;;;;8.52;100.00;100061.63;5038781;28;20360;-76
2023/01/03 04:30:49;;;;;;;0.60;0.60;;;;;;;8.51;100.00;100059.97;5038785;28;20032;-76
2023/01/03 04:33:15;;;;;;;0.43;0.43;;;;;;;8.46;100.00;100059.66;5038633;28;20463;-75
2023/01/03 04:35:41;;;;;;;0.40;0.40;;;;;;;8.46;100.00;100062.34;5038516;28;20025;-75
2023/01/03 04:38:06;;;;;;;0.40;0.40;;;;;;;8.46;100.00;100055.13;5038882;28;20068;-75
2023/01/03 04:40:33;;;;;;;0.50;0.50;;;;;;;8.46;100.00;100059.66;5038743;28;20064;-75
2023/01/03 04:45:43;;;;;;;0.40;0.40;;;;;;;8.37;100.00;100046.31;5057916;28;20027;-75
2023/01/03 04:48:09;;;;;;;0.40;0.40;;;;;;;8.35;100.00;100072.44;5038587;28;20028;-76
2023/01/03 04:50:35;;;;;;;0.50;0.50;;;;;;;8.27;100.00;100060.94;5054800;28;20390;-75
2023/01/03 04:53:03;;;;;;;0.40;0.40;;;;;;;8.20;100.00;100071.53;5038824;28;20060;-76
2023/01/03 04:55:28;;;;;;;0.50;0.50;;;;;;;8.14;100.00;100066.88;5038468;28;20044;-75
2023/01/03 04:57:54;;;;;;;0.40;0.40;;;;;;;8.11;100.00;100072.59;5056046;28;20029;-76
2023/01/03 05:00:20;;;;;;;0.68;0.68;;;;;;;8.04;100.00;100059.06;5042287;28;20461;-76
2023/01/03 05:02:45;;;;;;;0.40;0.40;;;;;;;8.07;100.00;100055.19;5042141;28;20032;-75
2023/01/03 05:05:11;;;;;;;0.40;0.40;;;;;;;8.12;100.00;100069.75;5042126;28;20036;-74
2023/01/03 05:07:36;;;;;;;0.40;0.40;;;;;;;8.12;100.00;100067.06;5074720;28;20028;-76
2023/01/03 05:10:02;;;;;;;0.50;0.47;;;;;;;8.11;100.00;100075.28;5041808;28;20024;-75
2023/01/03 05:12:28;;;;;;;0.50;0.50;;;;;;;8.07;100.00;100077.47;5041739;28;20044;-75
2023/01/03 05:14:54;;;;;;;1.52;0.70;;;;;;;8.02;100.00;100065.59;5058433;28;20040;-76
2023/01/03 05:17:20;;;;;;;1.30;0.60;;;;;;;7.97;100.00;100054.63;5041821;28;20048;-75
2023/01/03 05:27:59;;;;;;;0.40;0.40;;;;;;;7.66;100.00;100053.59;5060658;28;20024;-75
2023/01/03 05:30:24;;;;;;;0.40;0.40;;;;;;;7.84;100.00;100066.72;5074481;28;20338;-74
2023/01/03 05:32:50;;;;;;;0.40;0.40;;;;;;;7.84;100.00;100082.78;5041731;28;20105;-75
2023/01/03 05:35:16;;;;;;;0.40;0.40;;;;;;;7.83;100.00;100075.78;5041546;28;20413;-75
2023/01/03 05:37:41;;;;;;;0.40;0.40;;;;;;;7.83;100.00;100062.38;5058169;28;20043;-75
2023/01/03 05:40:08;;;;;;;0.43;0.43;;;;;;;7.83;100.00;100059.72;5041422;28;20032;-75
2023/01/03 05:42:33;;;;;;;0.50;0.50;;;;;;;7.83;100.00;100065.06;5041288;28;20090;-75
2023/01/03 05:44:59;;;;;;;0.40;0.40;;;;;;;7.78;100.00;100051.38;5041258;28;20044;-75
2023/01/03 05:47:25;;;;;;;0.50;0.50;;;;;;;7.81;100.00;100058.22;5041372;28;20115;-75
2023/01/03 05:49:50;;;;;;;0.40;0.40;;;;;;;7.82;100.00;100060.69;5075110;28;20040;-75
2023/01/03 05:52:16;;;;;;;0.43;0.43;;;;;;;7.78;100.00;100046.00;5041296;28;20040;-75
2023/01/03 05:54:42;;;;;;;0.40;0.40;;;;;;;7.74;100.00;100033.97;5041185;28;20091;-75
2023/01/03 05:57:07;;;;;;;0.40;0.40;;;;;;;7.74;100.00;100044.69;5041223;28;20028;-75
2023/01/03 05:59:33;;;;;;;0.40;0.40;;;;;;;7.67;100.00;100033.00;5041081;28;20040;-77
2023/01/03 06:01:59;;;;;;;0.40;0.40;;;;;;;7.71;100.00;100035.16;5041041;28;20072;-75
2023/01/03 06:04:24;;;;;;;0.40;0.40;;;;;;;7.64;100.00;100036.84;5057410;28;20025;-75
2023/01/03 06:06:50;;;;;;;0.40;0.40;;;;;;;7.62;100.00;100041.56;5040967;28;20119;-75
2023/01/03 06:09:16;;;;;;;0.45;0.45;;;;;;;7.48;100.00;100019.03;5040534;28;20025;-75
2023/01/03 06:11:42;;;;;;;0.40;0.40;;;;;;;7.51;100.00;100017.84;5040765;28;20039;-75
2023/01/03 06:14:08;;;;;;;0.50;0.50;;;;;;;7.50;100.00;100021.56;5073987;28;20056;-75
2023/01/03 06:19:18;;;;;;;0.40;0.40;;;;;;;7.47;100.00;100000.50;5059961;28;20040;-75
2023/01/03 06:21:43;;;;;;;0.43;0.43;;;;;;;7.43;100.00;100002.69;5040569;28;20047;-75
2023/01/03 06:24:09;;;;;;;0.40;0.40;;;;;;;7.41;100.00;100001.19;5040757;28;20041;-75
2023/01/03 06:26:35;;;;;;;0.40;0.40;;;;;;;7.43;100.00;99996.50;5040463;28;20064;-75
2023/01/03 06:29:01;;;;;;;0.32;0.32;;;;;;;7.43;100.00;99989.31;5040360;28;20030;-75
2023/01/03 06:31:29;;;;;;;0.40;0.40;;;;;;;7.41;100.00;99979.78;5056808;28;20107;-75
2023/01/03 06:33:55;;;;;;;0.40;0.40;;;;;;;7.46;100.00;99985.44;5056894;28;20036;-76
2023/01/03 06:36:22;;;;;;;0.40;0.40;;;;;;;7.51;100.00;99980.41;5056798;28;20032;-75
2023/01/03 06:38:48;;;;;;;0.50;0.50;;;;;;;7.52;100.00;99973.25;5056988;28;20127;-75
2023/01/03 06:41:14;;;;;;;0.40;0.40;;;;;;;7.57;100.00;99977.06;5074305;28;20037;-76
2023/01/03 06:43:41;;;;;;;0.50;0.50;;;;;;;7.62;100.00;99974.69;5073694;28;20037;-75
2023/01/03 06:54:28;;;;;;;0.50;0.50;;;;;;;7.42;100.00;99939.50;5073000;28;20056;-75
2023/01/03 06:56:54;;;;;;;0.40;0.40;;;;;;;7.48;100.00;99937.97;5056243;28;20121;-77
2023/01/03 06:59:20;;;;;;;0.40;0.40;;;;;;;7.46;100.00;99942.66;5072898;28;20503;-75
2023/01/03 07:01:47;;;;;;;0.40;0.40;;;;;;;7.46;100.00;99940.84;5056069;28;20478;-76
2023/01/03 07:04:13;;;;;;;0.50;0.50;;;;;;;7.47;100.00;99930.97;5039689;28;20470;-75
2023/01/03 07:06:39;;;;;;;0.43;0.43;;;;;;;7.52;100.00;99919.75;5056356;28;20040;-76
2023/01/03 07:09:05;;;;;;;0.40;0.40;;;;;;;7.48;100.00;99911.22;5055753;28;20489;-75
2023/01/03 07:11:31;;;;;;;0.50;0.50;;;;;;;7.51;100.00;99910.84;5039573;28;20391;-75
2023/01/03 07:13:57;;;;;;;0.30;0.30;;;;;;;7.50;100.00;99906.53;5072896;28;20056;-75
2023/01/03 07:16:28;;;;;;;0.40;0.40;;;;;;;7.53;100.00;99910.69;5055820;28;20115;-75
2023/01/03 07:18:54;;;;;;;0.40;0.40;;;;;;;7.54;100.00;99915.88;5072950;28;20048;-75
2023/01/03 07:21:21;;;;;;;0.50;0.50;;;;;;;7.55;100.00;99911.34;5055582;28;20033;-76
2023/01/03 07:23:47;;;;;;;0.40;0.40;;;;;;;7.56;100.00;99905.00;5055872;28;20032;-76
2023/01/03 07:26:13;;;;;;;0.40;0.40;;;;;;;7.56;100.00;99905.81;5055735;28;20664;-76
2023/01/03 07:28:38;;;;;;;0.40;0.40;;;;;;;7.49;100.00;99895.00;5055707;28;20097;-75
2023/01/03 07:31:05;;;;;;;0.40;0.40;;;;;;;7.59;100.00;99891.25;5056082;28;20115;-75
2023/01/03 07:33:31;;;;;;;0.40;0.40;;;;;;;7.60;100.00;99887.59;5023054;28;20033;-75
2023/01/03 07:36:06;;;;;;;0.40;0.40;;;;;;;7.63;100.00;99892.56;5039353;28;20031;-75
2023/01/03 07:38:32;;;;;;;0.47;0.47;;;;;;;7.52;100.00;99848.34;5072497;28;20032;-78
2023/01/03 07:40:58;;;;;;;2.38;2.28;;;;;;;7.69;100.00;99871.28;5039430;28;20063;-76
2023/01/03 07:43:36;;;;;;;0.47;0.47;;;;;;;7.72;100.00;99860.22;5072417;28;20048;-76
2023/01/03 07:46:05;;;;;;;0.40;0.40;;;;;;;7.79;100.00;99857.66;5040919;28;20485;-76
2023/01/03 07:48:31;;;;;;;0.40;0.40;;;;;;;7.81;100.00;99858.31;5038679;28;20375;-76
2023/01/03 07:50:57;;;;;;;0.50;0.50;;;;;;;7.80;100.00;99872.69;5054836;28;20387;-75
2023/01/03 07:53:23;;;;;;;0.50;0.50;;;;;;;7.83;100.00;99861.66;5071884;28;20029;-75
2023/01/03 07:55:49;;;;;;;0.50;0.50;;;;;;;7.84;100.00;99863.31;5055083;28;20024;-76
2023/01/03 07:58:15;;;;;;;0.50;0.50;;;;;;;7.89;100.00;99850.22;5038961;28;20040;-76
2023/01/03 08:00:41;;;;;;;0.40;0.40;;;;;;;7.92;100.00;99854.38;5038988;28;20024;-77
2023/01/03 08:03:07;;;;;;;0.40;0.40;;;;;;;7.96;100.00;99849.47;5038998;28;20037;-75
2023/01/03 08:05:36;;;;;;;0.40;0.40;;;;;;;7.98;100.00;99834.91;5071844;28;20449;-77
2023/01/03 08:08:03;;;;;;;0.40;0.40;;;;;;;8.06;100.00;99840.19;5055491;28;20463;-75
2023/01/03 08:13:18;;;;;;;0.50;0.50;;;;;;;8.15;100.00;99825.72;5071817;28;20025;-75
2023/01/03 08:15:55;;;;;;;0.40;0.40;;;;;;;8.23;100.00;99806.06;5071609;28;20032;-75
2023/01/03 08:18:23;;;;;;;0.40;0.40;;;;;;;8.27;100.00;99783.22;5038906;28;20478;-75
2023/01/03 08:20:50;;;;;;;0.60;0.60;;;;;;;8.34;100.00;99784.16;5038721;28;20093;-75
2023/01/03 08:23:16;;;;;;;0.40;0.40;;;;;;;8.39;100.00;99764.91;5055417;28;20036;-75
2023/01/03 08:25:44;;;;;;;0.40;0.40;;;;;;;8.45;100.00;99757.97;5072081;28;20040;-75
2023/01/03 08:28:10;;;;;;;0.40;0.40;;;;;;;8.50;100.00;99760.91;5038951;28;20061;-74
2023/01/03 08:30:46;;;;;;;0.40;0.40;;;;;;;8.52;100.00;99765.06;5038827;28;20105;-77
2023/01/03 08:33:14;;;;;;;0.40;0.40;;;;;;;8.57;100.00;99751.94;5057267;28;20032;-75
2023/01/03 08:35:42;;;;;;;0.40;0.40;;;;;;;8.63;100.00;99750.34;5075569;28;20466;-76
2023/01/03 08:38:12;;;;;;;0.50;0.50;;;;;;;8.71;100.00;99744.88;5075441;28;20037;-76
2023/01/03 08:40:39;;;;;;;0.40;0.40;;;;;;;8.77;100.00;99732.56;5058552;28;20367;-77
2023/01/03 08:43:05;;;;;;;0.40;0.40;;;;;;;8.80;100.00;99733.03;5058636;28;20047;-75
2023/01/03 08:45:31;;;;;;;0.40;0.40;;;;;;;8.87;100.00;99721.56;5042315;28;20036;-75
2023/01/03 08:48:00;;;;;;;1.98;0.57;;;;;;;8.95;100.00;99718.75;5042248;28;20114;-77
2023/01/03 08:50:26;;;;;;;2.15;0.90;;;;;;;9.02;100.00;99708.91;5058685;28;20056;-77
2023/01/03 08:52:52;;;;;;;0.40;0.40;;;;;;;9.12;100.00;99704.06;5075149;28;20028;-75
2023/01/03 08:55:18;;;;;;;0.68;0.57;;;;;;;9.26;100.00;99707.69;5041951;28;20036;-78
2023/01/03 08:57:44;;;;;;;0.50;0.50;;;;;;;9.38;100.00;99686.53;5058490;28;20036;-76
2023/01/03 09:00:10;;;;;;;0.50;0.50;;;;;;;9.42;100.00;99694.00;5058634;28;20028;-76
2023/01/03 09:02:36;;;;;;;0.40;0.40;;;;;;;9.49;100.00;99679.81;5042114;28;20071;-78
2023/01/03 09:05:02;;;;;;;0.43;0.43;;;;;;;9.63;100.00;99687.78;5058810;28;20037;-76
2023/01/03 09:07:27;;;;;;;0.57;0.57;;;;;;;9.71;100.00;99686.75;5058157;28;20114;-76
2023/01/03 09:09:53;;;;;;;0.40;0.40;;;;;;;9.80;100.00;99676.72;5075065;28;20040;-76
2023/01/03 09:12:19;;;;;;;0.57;0.50;;;;;;;9.84;100.00;99675.28;5058466;28;20047;-76
2023/01/03 09:14:44;;;;;;;0.50;0.50;;;;;;;9.88;100.00;99674.69;5041620;28;20105;-76
2023/01/03 09:17:10;;;;;;;0.40;0.40;;;;;;;9.86;100.00;99667.88;5041897;28;20033;-76
2023/01/03 09:19:36;;;;;;;0.40;0.40;;;;;;;9.88;100.00;99665.81;5058133;28;20039;-76
2023/01/03 09:22:02;;;;;;;0.50;0.50;;;;;;;9.84;100.00;99661.84;5041657;28;20453;-76
2023/01/03 09:24:27;;;;;;;0.50;0.50;;;;;;;9.85;100.00;99642.88;5058346;28;20029;-76
2023/01/03 09:26:53;;;;;;;0.40;0.40;;;;;;;9.95;100.00;99645.22;5041779;28;20494;-76
2023/01/03 09:29:19;;;;;;;0.47;0.47;;;;;;;10.00;100.00;99652.66;5041291;28;20024;-76
2023/01/03 09:31:44;;;;;;;0.40;0.40;;;;;;;10.12;100.00;99651.88;5057990;28;20027;-75
2023/01/03 09:34:10;;;;;;;0.40;0.40;;;;;;;10.12;100.00;99645.69;5041452;28;20059;-76
2023/01/03 09:36:37;;;;;;;0.60;0.60;;;;;;;10.09;100.00;99649.59;5058106;28;20039;-77
2023/01/03 09:39:04;;;;;;;0.60;0.60;;;;;;;10.07;100.00;99648.97;5058194;28;20111;-77
2023/01/03 09:41:29;;;;;;;0.40;0.40;;;;;;;10.04;100.00;99641.31;5057613;28;20360;-76
2023/01/03 09:44:02;;;;;;;0.40;0.40;;;;;;;10.08;100.00;99642.59;5040681;28;20044;-76
2023/01/03 09:46:28;;;;;;;0.50;0.50;;;;;;;10.13;100.00;99625.84;5041014;28;20044;-75
2023/01/03 09:48:54;;;;;;;0.40;0.40;;;;;;;10.22;100.00;99640.78;5040454;28;20394;-77
2023/01/03 10:05:44;;;;;;;0.40;0.40;;;;;;;10.37;100.00;99602.19;5074333;28;20470;-79
2023/01/03 10:08:21;;;;;;;0.40;0.40;;;;;;;10.33;100.00;99597.22;5057597;28;20036;-78
2023/01/03 10:10:57;;;;;;;0.40;0.40;;;;;;;10.24;100.00;99585.00;5073953;28;20033;-80
2023/01/03 10:13:31;;;;;;;0.40;0.40;;;;;;;10.30;100.00;99588.75;5074083;28;20514;-78
2023/01/03 10:16:48;;;;;;;0.40;0.40;;;;;;;10.43;100.00;99604.09;5074141;28;20032;-78
2023/01/03 10:19:17;;;;;;;0.40;0.40;;;;;;;10.56;100.00;99604.13;5040396;28;20071;-78
2023/01/03 10:21:49;;;;;;;0.50;0.50;;;;;;;10.72;100.00;99602.91;5057405;28;20537;-79
2023/01/03 10:24:41;;;;;;;0.50;0.50;;;;;;;10.80;100.00;99602.72;5057310;28;20051;-78
2023/01/03 10:27:14;;;;;;;0.40;0.40;;;;;;;10.89;100.00;99587.19;5073918;28;20090;-79
2023/01/03 10:29:40;;;;;;;0.40;0.40;;;;;;;10.77;100.00;99571.69;5073616;28;20115;-78
2023/01/03 10:32:25;;;;;;;0.40;0.40;;;;;;;10.98;100.00;99594.84;5073625;28;20082;-78
2023/01/03 10:35:26;;;;;;;0.50;0.50;;;;;;;11.13;100.00;99585.72;5072704;28;20486;-77
2023/01/03 10:37:53;;;;;;;0.40;0.40;;;;;;;11.21;100.00;99596.28;5062572;28;20115;-78
2023/01/03 10:40:19;;;;;;;0.40;0.40;;;;;;;11.18;100.00;99565.22;5073462;28;20479;-78
2023/01/03 10:42:48;;;;;;;0.50;0.40;;;;;;;11.22;100.00;99603.34;5072994;28;20032;-78
2023/01/03 10:45:20;;;;;;;0.40;0.40;;;;;;;11.14;100.00;99614.28;5072646;28;20028;-75
2023/01/03 10:48:00;;;;;;;0.40;0.40;;;;;;;11.14;100.00;99616.97;5073029;28;20382;-75
2023/01/03 10:50:26;;;;;;;0.40;0.40;;;;;;;11.16;100.00;99622.97;5072907;28;20028;-75
2023/01/03 10:53:05;;;;;;;0.50;0.50;;;;;;;11.13;100.00;99632.28;5056390;28;20048;-75
2023/01/03 10:55:33;;;;;;;0.38;0.38;;;;;;;11.08;100.00;99632.06;5055687;28;20076;-76
2023/01/03 10:58:01;;;;;;;0.40;0.40;;;;;;;11.03;100.00;99612.22;5039668;28;20394;-75
2023/01/03 11:00:36;;;;;;;0.40;0.40;;;;;;;11.08;100.00;99632.06;5073094;28;20031;-76
2023/01/03 11:03:10;;;;;;;0.30;0.30;;;;;;;11.05;100.00;99627.13;5041001;28;20043;-75
2023/01/03 11:05:37;;;;;;;0.40;0.40;;;;;;;11.08;100.00;99626.69;5056253;28;20024;-75
2023/01/03 11:08:05;;;;;;;0.40;0.40;;;;;;;11.10;100.00;99629.19;5072935;28;20075;-75
2023/01/03 11:10:48;;;;;;;0.50;0.50;;;;;;;11.17;100.00;99621.97;5056127;28;20064;-75
2023/01/03 11:13:19;;;;;;;0.50;0.50;;;;;;;11.20;100.00;99621.53;5072427;28;20037;-75
2023/01/03 11:15:45;;;;;;;0.50;0.50;;;;;;;11.19;100.00;99619.88;5073223;28;20024;-76
2023/01/03 11:18:19;;;;;;;0.40;0.40;;;;;;;11.07;100.00;99616.16;5039472;28;20474;-75
2023/01/03 11:20:57;;;;;;;0.40;0.40;;;;;;;11.04;100.00;99632.72;5072788;28;20035;-75
2023/01/03 11:23:53;;;;;;;0.40;0.40;;;;;;;11.03;100.00;99626.50;5056105;28;20070;-75
2023/01/03 11:26:24;;;;;;;0.40;0.40;;;;;;;11.06;100.00;99630.63;5072624;28;20040;-75
2023/01/03 11:29:12;;;;;;;0.40;0.40;;;;;;;11.07;100.00;99618.84;5054032;28;20123;-75
2023/01/03 11:31:59;;;;;;;0.40;0.40;;;;;;;11.12;100.00;99605.59;5071518;28;20111;-74
2023/01/03 11:34:57;;;;;;;0.40;0.40;;;;;;;11.20;100.00;99608.09;5073020;28;20037;-75
2023/01/03 11:37:35;;;;;;;0.40;0.40;;;;;;;11.27;100.00;99603.50;5072109;28;20032;-74
2023/01/03 11:40:12;;;;;;;0.50;0.50;;;;;;;11.22;100.00;99595.25;5073352;28;20040;-74
2023/01/03 11:42:45;;;;;;;0.45;0.45;;;;;;;11.16;100.00;99586.13;5073529;28;20059;-75
2023/01/03 11:45:20;;;;;;;0.40;0.40;;;;;;;11.15;100.00;99583.66;5072361;28;20111;-74
2023/01/03 11:48:17;;;;;;;0.50;0.50;;;;;;;11.12;100.00;99594.84;5039019;28;20043;-74
2023/01/03 11:50:57;;;;;;;0.40;0.40;;;;;;;11.17;100.00;99586.97;5072232;28;20070;-75
2023/01/03 11:53:33;;;;;;;0.47;0.47;;;;;;;11.18;100.00;99578.69;5055348;28;20394;-75
2023/01/03 11:56:25;;;;;;;0.50;0.50;;;;;;;11.24;100.00;99598.53;5071736;28;20078;-75
2023/01/03 11:59:12;;;;;;;0.50;0.50;;;;;;;11.26;100.00;99598.34;5072122;28;20036;-75
2023/01/03 12:01:41;;;;;;;0.40;0.40;;;;;;;11.30;100.00;99603.13;5055605;28;20033;-74
2023/01/03 12:04:34;;;;;;;0.40;0.40;;;;;;;11.36;100.00;99591.50;5072261;28;20116;-75
2023/01/03 12:07:24;;;;;;;0.30;0.30;;;;;;;11.38;100.00;99600.19;5056719;28;20470;-75
2023/01/03 12:10:19;;;;;;;0.47;0.47;;;;;;;11.38;100.00;99605.59;5059540;28;20064;-74
2023/01/03 12:13:23;;;;;;;0.30;0.30;;;;;;;11.38;100.00;99594.81;5059209;28;20028;-74
2023/01/03 12:15:55;;;;;;;0.30;0.30;;;;;;;11.38;100.00;99584.06;5001952;28;20147;-74
2023/01/03 12:18:27;;;;;;;0.40;0.40;;;;;;;11.42;100.00;99595.22;5068897;28;20151;-74
2023/01/03 12:20:57;;;;;;;0.50;0.50;;;;;;;11.43;100.00;99592.31;5059639;28;20055;-74
2023/01/03 12:23:45;;;;;;;0.40;0.40;;;;;;;11.47;100.00;99587.34;5076058;28;20036;-75
2023/01/03 12:26:14;;;;;;;0.40;0.40;;;;;;;11.51;100.00;99582.34;5075545;28;20116;-75
2023/01/03 12:28:48;;;;;;;0.40;0.40;;;;;;;11.55;100.00;99575.53;5075741;28;20478;-75
2023/01/03 12:31:24;;;;;;;0.40;0.40;;;;;;;11.58;100.00;99550.88;5042764;28;20040;-75
2023/01/03 12:33:55;;;;;;;0.40;0.40;;;;;;;11.61;100.00;99550.44;5075449;28;20020;-74
2023/01/03 12:36:26;;;;;;;0.40;0.40;;;;;;;11.71;100.00;99553.50;5075464;28;20024;-74
2023/01/03 12:38:58;;;;;;;0.40;0.40;;;;;;;11.75;100.00;99565.53;5059213;28;20036;-74
2023/01/03 12:41:35;;;;;;;0.40;0.40;;;;;;;11.78;100.00;99566.97;5059034;28;20040;-74
2023/01/03 12:44:12;;;;;;;0.40;0.40;;;;;;;11.77;100.00;99565.28;5059058;28;20032;-74
2023/01/03 12:46:43;;;;;;;0.40;0.40;;;;;;;11.80;100.00;99562.16;5042091;28;20068;-75
2023/01/03 12:49:16;;;;;;;0.40;0.40;;;;;;;11.87;100.00;99566.53;5041842;28;20028;-75